Time;durP1;ratioP1;P1;durP2;ratioP2;P2;SDS_P1;SDS_P2;PMS_P1;PMS_P2;Temp;Humidity;BMP_temperature;BMP_pressure;BME280_temperature;BME280_humidity;BME280_pressure;Samples;Min_cycle;Max_cycle;Signal;HPM_P1;HPM_P2
2023/02/12 00:00:00;;;;;;;22.00;13.80;;;8.80;99.90;;;;;;5072921;28;20430;-48
2023/02/12 00:02:27;;;;;;;23.00;12.27;;;8.70;99.90;;;;;;5073762;28;20812;-48
2023/02/12 00:04:55;;;;;;;17.13;9.33;;;8.70;99.90;;;;;;5073721;28;20761;-47
2023/02/12 00:07:22;;;;;;;25.43;9.93;;;8.60;99.90;;;;;;5074104;28;20927;-47
2023/02/12 00:09:48;;;;;;;20.27;10.00;;;8.70;99.90;;;;;;5073409;28;20513;-48
2023/02/12 00:12:15;;;;;;;19.63;10.37;;;8.50;99.90;;;;;;5073344;28;20456;-47
2023/02/12 00:14:42;;;;;;;24.10;10.80;;;8.30;99.90;;;;;;5073457;28;20447;-48
2023/02/12 00:17:09;;;;;;;18.60;10.00;;;8.80;99.90;;;;;;5073753;28;20430;-48
2023/02/12 00:19:35;;;;;;;23.47;10.50;;;8.50;99.90;;;;;;5073560;28;20435;-49
2023/02/12 00:22:03;;;;;;;27.13;10.10;;;8.70;99.90;;;;;;5073271;28;20449;-47
2023/02/12 00:24:30;;;;;;;15.80;8.90;;;8.60;99.90;;;;;;5073268;28;20424;-47
2023/02/12 00:26:56;;;;;;;16.30;9.00;;;8.70;99.90;;;;;;5073630;28;20411;-46
2023/02/12 00:29:23;;;;;;;24.60;10.47;;;8.40;99.90;;;;;;5072982;28;20409;-48
2023/02/12 00:31:50;;;;;;;15.40;8.00;;;8.50;99.90;;;;;;5073307;28;20560;-48
2023/02/12 00:34:16;;;;;;;18.00;8.13;;;9.10;99.90;;;;;;5073022;28;20458;-47
2023/02/12 00:36:43;;;;;;;21.60;8.97;;;8.50;99.90;;;;;;5072764;28;20771;-48
2023/02/12 00:39:11;;;;;;;23.67;9.30;;;8.60;99.90;;;;;;5054817;28;20499;-47
2023/02/12 00:41:38;;;;;;;17.90;7.63;;;8.60;99.90;;;;;;5072917;28;20408;-47
2023/02/12 00:44:05;;;;;;;25.60;9.47;;;8.80;99.90;;;;;;5072658;28;20449;-47
2023/02/12 00:46:34;;;;;;;19.73;8.83;;;8.30;99.90;;;;;;5054871;28;20446;-47
2023/02/12 00:49:01;;;;;;;25.40;8.40;;;8.60;99.90;;;;;;5072614;28;20955;-47
2023/02/12 00:51:27;;;;;;;19.10;8.23;;;8.60;99.90;;;;;;5072861;28;20465;-47
2023/02/12 00:53:54;;;;;;;19.93;9.10;;;8.60;99.90;;;;;;5072717;28;20428;-48
2023/02/12 00:56:22;;;;;;;18.87;8.97;;;8.40;99.90;;;;;;5072661;28;20424;-47
2023/02/12 00:58:49;;;;;;;20.97;8.73;;;8.40;99.90;;;;;;5072348;28;20408;-48
2023/02/12 01:01:15;;;;;;;23.83;9.40;;;8.60;99.90;;;;;;5054668;28;20550;-50
2023/02/12 01:03:42;;;;;;;16.87;7.27;;;8.40;99.90;;;;;;5072535;28;20450;-48
2023/02/12 01:06:09;;;;;;;17.53;8.77;;;8.50;99.90;;;;;;5072578;28;20502;-48
2023/02/12 01:08:35;;;;;;;17.30;8.90;;;8.60;99.90;;;;;;5054209;28;20467;-47
2023/02/12 01:11:05;;;;;;;27.30;8.17;;;8.40;99.90;;;;;;5054266;28;20460;-49
2023/02/12 01:13:34;;;;;;;18.20;8.70;;;8.50;99.90;;;;;;5053368;28;20469;-48
2023/02/12 01:16:03;;;;;;;26.10;8.63;;;8.60;99.90;;;;;;5054832;28;20454;-47
2023/02/12 01:18:30;;;;;;;15.77;7.37;;;8.30;99.90;;;;;;5054265;28;20435;-47
2023/02/12 01:20:57;;;;;;;20.20;8.63;;;8.70;99.90;;;;;;5072445;28;20462;-48
2023/02/12 01:23:25;;;;;;;17.50;7.80;;;8.50;99.90;;;;;;5072290;28;20556;-49
2023/02/12 01:25:53;;;;;;;18.93;7.70;;;8.90;99.90;;;;;;5054362;28;20630;-48
2023/02/12 01:28:19;;;;;;;19.20;9.00;;;8.70;99.90;;;;;;5053953;28;20515;-48
2023/02/12 01:30:47;;;;;;;13.80;8.13;;;8.20;99.90;;;;;;5072069;28;20438;-48
2023/02/12 01:33:14;;;;;;;24.60;7.60;;;7.90;99.90;;;;;;5072269;28;20488;-48
2023/02/12 01:35:40;;;;;;;20.63;8.10;;;8.50;99.90;;;;;;5054111;28;20420;-48
2023/02/12 01:38:07;;;;;;;21.30;7.30;;;8.00;99.90;;;;;;5072119;28;20458;-49
2023/02/12 01:40:33;;;;;;;17.37;7.93;;;8.30;99.90;;;;;;5072068;28;20900;-47
2023/02/12 01:43:02;;;;;;;19.00;6.90;;;8.30;99.90;;;;;;5072190;28;20433;-49
2023/02/12 01:45:48;;;;;;;22.00;7.37;;;8.60;99.90;;;;;;5072390;28;20430;-47
2023/02/12 01:48:18;;;;;;;19.80;7.80;;;8.60;99.90;;;;;;5053999;28;20933;-47
2023/02/12 01:50:47;;;;;;;19.87;7.07;;;8.30;99.90;;;;;;5072759;28;20429;-48
2023/02/12 01:53:18;;;;;;;19.97;7.90;;;8.40;99.90;;;;;;5072164;28;20497;-47
2023/02/12 01:55:49;;;;;;;15.93;7.17;;;7.80;99.90;;;;;;5054339;28;20481;-48
2023/02/12 01:58:16;;;;;;;25.07;9.50;;;8.40;99.90;;;;;;5071699;28;20404;-48
2023/02/12 02:00:44;;;;;;;16.03;6.57;;;8.40;99.90;;;;;;5072187;28;20416;-48
2023/02/12 02:03:13;;;;;;;23.03;8.07;;;8.30;99.90;;;;;;5054151;28;20484;-50
2023/02/12 02:05:47;;;;;;;16.27;8.20;;;8.30;99.90;;;;;;5054022;28;20450;-48
2023/02/12 02:08:14;;;;;;;14.80;7.40;;;8.40;99.90;;;;;;5053780;28;20950;-49
2023/02/12 02:10:41;;;;;;;24.10;8.70;;;8.50;99.90;;;;;;5072219;28;20405;-48
2023/02/12 02:16:04;;;;;;;23.57;7.43;;;8.30;99.90;;;;;;5054362;28;20961;-49
2023/02/12 02:18:38;;;;;;;16.63;6.10;;;7.70;99.90;;;;;;5072122;28;20425;-49
2023/02/12 02:21:24;;;;;;;15.53;7.60;;;8.80;99.90;;;;;;5073344;28;20436;-48
2023/02/12 02:24:14;;;;;;;21.60;7.10;;;8.30;99.90;;;;;;5078130;28;20457;-48
2023/02/12 02:26:56;;;;;;;20.40;8.13;;;8.10;99.90;;;;;;5077656;28;20759;-48
2023/02/12 02:29:48;;;;;;;21.60;7.57;;;8.40;99.90;;;;;;5075182;28;20925;-48
2023/02/12 02:32:23;;;;;;;20.33;6.87;;;8.40;99.90;;;;;;5075516;28;20447;-48
2023/02/12 02:34:57;;;;;;;19.47;7.03;;;8.20;99.90;;;;;;5075420;28;20424;-48
2023/02/12 02:37:27;;;;;;;16.73;7.50;;;8.40;99.90;;;;;;5075699;28;20959;-48
2023/02/12 02:39:58;;;;;;;20.97;6.80;;;7.90;99.90;;;;;;5075305;28;20408;-48
2023/02/12 02:42:30;;;;;;;18.47;9.00;;;7.70;99.90;;;;;;5075534;28;20440;-48
2023/02/12 02:45:02;;;;;;;17.23;6.53;;;8.30;99.90;;;;;;5075260;28;20420;-48
2023/02/12 02:47:35;;;;;;;23.13;6.90;;;7.70;99.90;;;;;;5074902;28;20429;-48
2023/02/12 02:50:05;;;;;;;15.03;6.30;;;8.30;99.90;;;;;;5074884;28;20803;-48
2023/02/12 02:52:36;;;;;;;20.70;6.97;;;8.00;99.90;;;;;;5075068;28;20993;-47
2023/02/12 02:55:07;;;;;;;16.37;6.67;;;8.30;99.90;;;;;;5075613;28;20460;-48
2023/02/12 02:57:38;;;;;;;24.63;8.00;;;8.30;99.90;;;;;;5075081;28;20438;-48
2023/02/12 03:00:11;;;;;;;18.07;7.73;;;8.30;99.90;;;;;;5075186;28;20408;-48
2023/02/12 03:02:45;;;;;;;16.93;6.23;;;8.40;99.90;;;;;;5056998;28;20887;-48
2023/02/12 03:05:15;;;;;;;18.17;5.87;;;8.10;99.90;;;;;;5075005;28;20433;-48
2023/02/12 03:07:46;;;;;;;22.30;7.63;;;8.30;99.90;;;;;;5075197;28;20448;-49
2023/02/12 03:10:18;;;;;;;24.33;8.33;;;8.30;99.90;;;;;;5074907;28;20400;-48
2023/02/12 03:12:50;;;;;;;12.57;6.13;;;8.20;99.90;;;;;;5075227;28;20496;-48
2023/02/12 03:15:24;;;;;;;18.60;6.30;;;8.20;99.90;;;;;;5075401;28;20438;-48
2023/02/12 03:17:52;;;;;;;18.53;6.80;;;8.20;99.90;;;;;;5076870;28;20436;-48
2023/02/12 03:20:22;;;;;;;18.57;6.40;;;8.20;99.90;;;;;;5076737;28;20408;-48
2023/02/12 03:22:54;;;;;;;15.33;6.50;;;8.30;99.90;;;;;;5076328;28;20564;-49
2023/02/12 03:25:26;;;;;;;20.83;7.10;;;8.20;99.90;;;;;;5074620;28;20408;-48
2023/02/12 03:28:00;;;;;;;16.57;6.90;;;8.10;99.90;;;;;;5074524;28;20441;-48
2023/02/12 03:30:37;;;;;;;21.13;7.00;;;8.30;99.90;;;;;;5074109;28;20437;-48
2023/02/12 03:33:17;;;;;;;24.63;7.90;;;8.20;99.90;;;;;;5074233;28;20503;-48
2023/02/12 03:35:55;;;;;;;20.10;7.93;;;8.20;99.90;;;;;;5073432;28;20509;-49
2023/02/12 03:38:30;;;;;;;20.30;7.77;;;8.20;99.90;;;;;;5074450;28;20445;-49
2023/02/12 03:41:03;;;;;;;18.33;7.40;;;8.30;99.90;;;;;;5075244;28;20429;-48
2023/02/12 03:43:33;;;;;;;19.07;7.03;;;8.40;99.90;;;;;;5075210;28;20457;-47
2023/02/12 03:46:03;;;;;;;21.37;7.40;;;8.40;99.90;;;;;;5074137;28;20422;-48
2023/02/12 03:48:36;;;;;;;19.83;8.20;;;8.30;99.90;;;;;;5073714;28;20423;-48
2023/02/12 03:51:11;;;;;;;18.03;6.80;;;8.20;99.90;;;;;;5074208;28;20433;-48
2023/02/12 03:53:38;;;;;;;19.83;8.93;;;8.80;99.90;;;;;;5074102;28;20819;-47
2023/02/12 03:56:12;;;;;;;19.03;6.67;;;8.30;99.90;;;;;;5074150;28;20405;-48
2023/02/12 03:58:41;;;;;;;16.60;7.23;;;8.30;99.90;;;;;;5073853;28;20974;-48
2023/02/12 04:01:08;;;;;;;27.00;7.03;;;8.20;99.90;;;;;;5073850;28;20950;-48
2023/02/12 04:03:36;;;;;;;19.37;8.47;;;8.20;99.90;;;;;;5073678;28;20445;-48
2023/02/12 04:06:03;;;;;;;22.33;7.87;;;8.40;99.90;;;;;;5073745;28;20434;-47
2023/02/12 04:08:31;;;;;;;20.70;7.97;;;8.20;99.90;;;;;;5073222;28;20805;-49
2023/02/12 04:11:07;;;;;;;23.40;7.70;;;8.50;99.90;;;;;;5073519;28;20434;-47
2023/02/12 04:13:42;;;;;;;19.50;7.50;;;8.20;99.90;;;;;;5073392;28;20488;-47
2023/02/12 04:16:22;;;;;;;22.27;7.43;;;8.40;99.90;;;;;;5073585;28;20478;-48
2023/02/12 04:18:50;;;;;;;23.13;8.10;;;8.20;99.90;;;;;;5073466;28;20404;-48
2023/02/12 04:21:32;;;;;;;22.93;7.03;;;8.10;99.90;;;;;;5073559;28;20483;-47
2023/02/12 04:24:06;;;;;;;18.23;7.60;;;8.30;99.90;;;;;;5073301;28;20963;-48
2023/02/12 04:26:39;;;;;;;21.53;7.30;;;8.20;99.90;;;;;;5073293;28;20429;-47
2023/02/12 04:29:17;;;;;;;21.10;7.87;;;8.10;99.90;;;;;;5074042;28;20404;-48
2023/02/12 04:31:49;;;;;;;18.97;6.90;;;8.20;99.90;;;;;;5074216;28;20412;-48
2023/02/12 04:34:22;;;;;;;23.53;8.03;;;8.00;99.90;;;;;;5074067;28;20503;-48
2023/02/12 04:36:54;;;;;;;20.53;9.17;;;7.70;99.90;;;;;;5074868;28;20478;-48
2023/02/12 04:39:25;;;;;;;17.93;8.50;;;8.40;99.90;;;;;;5074422;28;20437;-48
2023/02/12 04:41:52;;;;;;;21.37;7.97;;;8.60;99.90;;;;;;5073329;28;20426;-48
2023/02/12 04:44:23;;;;;;;21.27;8.37;;;8.20;99.90;;;;;;5073168;28;20472;-49
2023/02/12 04:46:50;;;;;;;21.30;8.73;;;8.20;99.90;;;;;;5072909;28;20426;-48
2023/02/12 04:49:19;;;;;;;21.40;7.80;;;8.10;99.90;;;;;;5072545;28;20973;-48
2023/02/12 04:51:47;;;;;;;27.17;8.40;;;8.50;99.90;;;;;;5072750;28;20901;-47
2023/02/12 04:54:15;;;;;;;25.77;8.37;;;8.20;99.90;;;;;;5072602;28;20452;-48
2023/02/12 04:56:42;;;;;;;17.00;7.37;;;8.20;99.90;;;;;;5072701;28;20400;-47
2023/02/12 04:59:09;;;;;;;21.07;8.03;;;8.00;99.90;;;;;;5072354;28;20408;-47
2023/02/12 05:01:37;;;;;;;26.40;8.83;;;7.40;99.90;;;;;;5072612;28;20436;-48
2023/02/12 05:04:06;;;;;;;17.63;7.50;;;7.90;99.90;;;;;;5073125;28;20448;-48
2023/02/12 05:06:37;;;;;;;22.40;7.70;;;7.90;99.90;;;;;;5072816;28;20440;-48
2023/02/12 05:09:05;;;;;;;22.60;7.47;;;8.10;99.90;;;;;;5072467;28;20441;-48
2023/02/12 05:11:32;;;;;;;25.40;7.70;;;8.30;99.90;;;;;;5072559;28;20428;-50
2023/02/12 05:13:59;;;;;;;21.43;7.40;;;8.30;99.90;;;;;;5072218;28;20500;-48
2023/02/12 05:16:26;;;;;;;20.80;7.17;;;7.90;99.90;;;;;;5072577;28;20440;-47
2023/02/12 05:18:52;;;;;;;21.20;6.70;;;8.00;99.90;;;;;;5072132;28;20440;-48
2023/02/12 05:21:19;;;;;;;13.10;6.30;;;8.10;99.90;;;;;;5072629;28;20413;-48
2023/02/12 05:23:47;;;;;;;22.83;6.87;;;8.30;99.90;;;;;;5072165;28;20453;-48
2023/02/12 05:26:16;;;;;;;16.37;6.37;;;8.00;99.90;;;;;;5072230;28;20746;-47
2023/02/12 05:28:43;;;;;;;21.73;6.97;;;8.50;99.90;;;;;;5071932;28;20973;-48
2023/02/12 05:31:12;;;;;;;19.27;6.60;;;8.20;99.90;;;;;;5072024;28;20914;-48
2023/02/12 05:33:42;;;;;;;20.17;6.83;;;8.30;99.90;;;;;;5072023;28;20462;-48
2023/02/12 05:36:11;;;;;;;20.77;7.80;;;8.10;99.90;;;;;;5071948;28;20412;-48
2023/02/12 05:38:37;;;;;;;18.50;6.07;;;8.30;99.90;;;;;;5071861;28;20408;-48
2023/02/12 05:41:07;;;;;;;15.83;7.87;;;8.20;99.90;;;;;;5054071;28;20441;-48
2023/02/12 05:43:34;;;;;;;17.77;7.10;;;8.50;99.90;;;;;;5072911;28;20516;-48
2023/02/12 05:46:01;;;;;;;24.70;6.53;;;8.40;99.90;;;;;;5074129;28;20425;-48
2023/02/12 05:48:29;;;;;;;18.80;7.80;;;8.50;99.90;;;;;;5073497;28;20441;-48
2023/02/12 05:51:02;;;;;;;21.40;6.97;;;8.10;99.90;;;;;;5073574;28;20434;-48
2023/02/12 05:53:28;;;;;;;21.30;7.20;;;8.50;99.90;;;;;;5072176;28;20514;-48
2023/02/12 05:55:55;;;;;;;24.73;6.57;;;8.30;99.90;;;;;;5072808;28;20433;-48
2023/02/12 05:58:23;;;;;;;20.17;7.20;;;8.30;99.90;;;;;;5071475;28;20448;-48
2023/02/12 06:00:49;;;;;;;16.60;5.77;;;8.50;99.90;;;;;;5072272;28;20439;-48
2023/02/12 06:03:16;;;;;;;17.17;6.77;;;8.40;99.90;;;;;;5072208;28;20432;-48
2023/02/12 06:05:43;;;;;;;17.57;6.53;;;8.30;99.90;;;;;;5071870;28;20452;-48
2023/02/12 06:08:09;;;;;;;21.80;7.10;;;8.30;99.90;;;;;;5071368;28;20416;-48
2023/02/12 06:10:37;;;;;;;24.10;7.90;;;8.40;99.90;;;;;;5072020;28;20405;-47
2023/02/12 06:13:03;;;;;;;18.03;6.90;;;8.40;99.90;;;;;;5071488;28;20451;-48
2023/02/12 06:15:31;;;;;;;23.80;6.87;;;8.10;99.90;;;;;;5053755;28;20958;-49
2023/02/12 06:17:58;;;;;;;19.17;7.90;;;8.20;99.90;;;;;;5071668;28;20889;-49
2023/02/12 06:20:24;;;;;;;20.60;7.53;;;8.30;99.90;;;;;;5071611;28;20448;-48
2023/02/12 06:22:51;;;;;;;27.63;7.30;;;8.20;99.90;;;;;;5071706;28;20442;-49
2023/02/12 06:25:18;;;;;;;19.90;7.10;;;8.10;99.90;;;;;;5071785;28;20950;-48
2023/02/12 06:27:45;;;;;;;15.27;6.93;;;8.20;99.90;;;;;;5071765;28;20408;-49
2023/02/12 06:30:12;;;;;;;17.40;6.60;;;8.20;99.90;;;;;;5071220;28;20436;-49
2023/02/12 06:32:40;;;;;;;15.73;7.30;;;8.10;99.90;;;;;;5071402;28;20437;-48
2023/02/12 06:35:07;;;;;;;16.80;7.10;;;8.30;99.90;;;;;;5071514;28;20460;-48
2023/02/12 06:37:35;;;;;;;18.17;8.07;;;8.10;99.90;;;;;;5071577;28;20434;-48
2023/02/12 06:40:02;;;;;;;19.07;7.40;;;8.00;99.90;;;;;;5071681;28;20452;-48
2023/02/12 06:42:29;;;;;;;23.67;8.73;;;8.30;99.90;;;;;;5071724;28;20427;-48
2023/02/12 06:44:55;;;;;;;16.77;7.63;;;8.30;99.90;;;;;;5072421;28;20453;-48
2023/02/12 06:47:22;;;;;;;19.63;6.90;;;8.00;99.90;;;;;;5073631;28;20432;-48
2023/02/12 06:49:50;;;;;;;21.47;8.07;;;8.10;99.90;;;;;;5073195;28;20433;-47
2023/02/12 06:52:16;;;;;;;29.37;8.13;;;8.20;99.90;;;;;;5071505;28;20789;-49
2023/02/12 06:54:43;;;;;;;24.27;8.40;;;8.20;99.90;;;;;;5071256;28;20452;-49
2023/02/12 06:57:10;;;;;;;22.27;7.50;;;7.70;99.90;;;;;;5071193;28;20408;-49
2023/02/12 06:59:36;;;;;;;27.80;7.40;;;8.30;99.90;;;;;;5070944;28;20767;-47
2023/02/12 07:02:03;;;;;;;24.27;8.63;;;8.10;99.90;;;;;;5071031;28;20430;-47
2023/02/12 07:04:29;;;;;;;15.87;8.13;;;8.30;99.90;;;;;;5071076;28;20449;-47
2023/02/12 07:06:58;;;;;;;25.07;7.43;;;7.80;99.90;;;;;;5071321;28;20419;-49
2023/02/12 07:09:24;;;;;;;18.43;7.17;;;8.20;99.90;;;;;;5070873;28;20440;-49
2023/02/12 07:11:51;;;;;;;14.10;7.97;;;8.50;99.90;;;;;;5074117;28;20432;-48
2023/02/12 07:14:18;;;;;;;19.07;6.97;;;8.40;99.90;;;;;;5074941;28;20847;-49
2023/02/12 07:16:44;;;;;;;16.10;6.53;;;7.80;99.90;;;;;;5074625;28;20429;-48
2023/02/12 07:19:13;;;;;;;18.57;7.63;;;8.20;99.90;;;;;;5056255;28;20965;-48
2023/02/12 07:21:39;;;;;;;20.20;7.30;;;8.90;99.90;;;;;;5074577;28;20441;-49
2023/02/12 07:24:10;;;;;;;21.60;8.30;;;8.40;99.90;;;;;;5074391;28;20962;-48
2023/02/12 07:26:37;;;;;;;23.63;8.63;;;8.00;99.90;;;;;;5074492;28;20436;-49
2023/02/12 07:29:03;;;;;;;23.70;7.87;;;8.20;99.90;;;;;;5074063;28;20437;-48
2023/02/12 07:31:30;;;;;;;17.23;6.87;;;8.40;99.90;;;;;;5074800;28;20775;-49
2023/02/12 07:33:58;;;;;;;19.00;7.03;;;8.20;99.90;;;;;;5074326;28;20473;-49
2023/02/12 07:36:27;;;;;;;17.97;7.20;;;8.80;99.90;;;;;;5074419;28;20436;-49
2023/02/12 07:38:54;;;;;;;20.40;7.00;;;8.40;99.90;;;;;;5073811;28;20441;-49
2023/02/12 07:41:24;;;;;;;23.93;8.93;;;8.40;99.90;;;;;;5074198;28;20436;-49
2023/02/12 07:43:54;;;;;;;14.30;7.13;;;8.60;99.90;;;;;;5073946;28;20461;-48
2023/02/12 07:46:25;;;;;;;16.03;6.97;;;8.00;99.90;;;;;;5074257;28;20430;-49
2023/02/12 07:48:52;;;;;;;21.30;7.03;;;8.00;99.90;;;;;;5055897;28;20458;-49
2023/02/12 07:51:19;;;;;;;14.87;7.00;;;8.60;99.90;;;;;;5074053;28;20429;-49
2023/02/12 07:53:46;;;;;;;13.93;6.87;;;8.60;99.90;;;;;;5073661;28;20462;-49
2023/02/12 07:56:14;;;;;;;22.87;7.43;;;8.00;99.90;;;;;;5074093;28;20492;-48
2023/02/12 07:58:45;;;;;;;24.97;7.40;;;8.70;99.90;;;;;;5073529;28;20441;-48
2023/02/12 08:01:13;;;;;;;16.63;6.90;;;9.10;99.90;;;;;;5073869;28;20440;-49
2023/02/12 08:03:40;;;;;;;18.23;6.40;;;8.70;99.90;;;;;;5074140;28;20449;-48
2023/02/12 08:06:08;;;;;;;21.37;6.97;;;9.00;99.90;;;;;;5073743;28;20441;-48
2023/02/12 08:08:37;;;;;;;16.10;7.83;;;8.50;99.90;;;;;;5073245;28;20433;-48
2023/02/12 08:11:04;;;;;;;15.73;6.13;;;8.80;99.90;;;;;;5073485;28;20946;-48
2023/02/12 08:13:32;;;;;;;23.60;9.13;;;9.00;99.90;;;;;;5094651;22;20515;-52
2023/02/12 08:16:02;;;;;;;17.53;6.10;;;8.90;99.90;;;;;;5053545;28;20417;-51
2023/02/12 08:18:30;;;;;;;21.03;6.70;;;8.80;99.90;;;;;;5053018;28;20438;-51
2023/02/12 08:21:01;;;;;;;23.83;6.73;;;8.80;99.90;;;;;;5052981;28;20442;-51
2023/02/12 08:23:28;;;;;;;19.97;8.17;;;8.80;99.90;;;;;;5053263;28;20401;-51
2023/02/12 08:25:54;;;;;;;24.57;6.80;;;8.80;99.90;;;;;;5053247;28;20463;-51
2023/02/12 08:28:22;;;;;;;19.27;7.13;;;8.70;99.90;;;;;;5053111;28;20414;-51
2023/02/12 08:30:48;;;;;;;20.43;7.50;;;8.80;99.90;;;;;;5053254;28;20412;-51
2023/02/12 08:33:16;;;;;;;19.40;7.00;;;8.80;99.90;;;;;;5053157;28;20410;-52
2023/02/12 08:35:43;;;;;;;24.60;7.63;;;8.80;99.90;;;;;;5035817;28;20428;-51
2023/02/12 08:38:10;;;;;;;19.00;7.40;;;9.00;99.90;;;;;;5052877;28;20431;-52
2023/02/12 08:40:36;;;;;;;22.90;7.80;;;8.90;99.90;;;;;;5053162;28;20401;-52
2023/02/12 08:43:03;;;;;;;17.13;8.13;;;9.00;99.90;;;;;;5052967;28;20412;-50
2023/02/12 08:45:29;;;;;;;21.80;6.23;;;9.00;99.90;;;;;;5052984;28;20446;-51
2023/02/12 08:47:56;;;;;;;19.30;8.10;;;9.10;99.90;;;;;;5052802;28;20420;-52
2023/02/12 08:50:24;;;;;;;31.67;7.70;;;9.20;99.90;;;;;;5052876;28;20434;-51
2023/02/12 08:52:51;;;;;;;19.20;6.10;;;9.60;99.90;;;;;;5053268;28;20431;-51
2023/02/12 08:55:17;;;;;;;17.00;6.23;;;8.70;99.90;;;;;;5052998;28;20465;-51
2023/02/12 08:57:44;;;;;;;14.20;7.40;;;9.10;99.90;;;;;;5053003;28;20767;-51
2023/02/12 09:00:11;;;;;;;22.70;6.90;;;9.40;99.90;;;;;;5052546;28;20445;-51
2023/02/12 09:02:38;;;;;;;19.37;6.40;;;9.20;99.90;;;;;;5034723;28;20447;-52
2023/02/12 09:05:05;;;;;;;20.90;7.40;;;9.40;99.90;;;;;;5052675;28;20459;-52
2023/02/12 09:07:33;;;;;;;21.47;6.73;;;9.50;99.90;;;;;;5052335;28;20430;-50
2023/02/12 09:09:59;;;;;;;18.33;7.37;;;9.30;99.90;;;;;;5052270;28;20421;-49
2023/02/12 09:12:26;;;;;;;20.23;7.00;;;9.30;99.90;;;;;;5052633;28;20435;-50
2023/02/12 09:14:52;;;;;;;18.90;7.20;;;9.40;99.90;;;;;;5051947;28;20487;-51
2023/02/12 09:17:20;;;;;;;17.57;7.03;;;9.30;99.90;;;;;;5052541;28;20454;-51
2023/02/12 09:19:47;;;;;;;21.00;7.73;;;9.50;99.90;;;;;;5052168;28;20951;-50
2023/02/12 09:22:13;;;;;;;22.50;6.83;;;9.10;99.90;;;;;;5052156;28;20457;-51
2023/02/12 09:24:41;;;;;;;16.87;7.07;;;9.60;99.90;;;;;;5052269;28;20421;-50
2023/02/12 09:27:08;;;;;;;23.47;6.13;;;10.10;99.90;;;;;;5052240;28;20441;-50
2023/02/12 09:29:34;;;;;;;15.30;7.03;;;9.50;99.90;;;;;;5051591;28;20441;-52
2023/02/12 09:32:04;;;;;;;16.37;6.77;;;9.70;99.90;;;;;;5052304;28;20446;-51
2023/02/12 09:34:33;;;;;;;21.73;7.60;;;9.70;99.90;;;;;;5052197;28;20525;-51
2023/02/12 09:37:00;;;;;;;19.57;7.10;;;9.60;99.90;;;;;;5051675;28;20431;-51
2023/02/12 09:39:29;;;;;;;22.23;8.07;;;10.10;99.90;;;;;;5051727;28;20439;-51
2023/02/12 09:42:24;;;;;;;22.83;8.50;;;10.10;99.90;;;;;;5033953;28;20497;-50
2023/02/12 09:44:58;;;;;;;16.13;5.83;;;10.00;99.90;;;;;;5047647;28;20478;-51
2023/02/12 09:47:30;;;;;;;14.07;6.03;;;9.90;99.90;;;;;;5051658;28;20449;-50
2023/02/12 09:50:10;;;;;;;17.83;6.83;;;9.80;99.90;;;;;;5051498;28;20946;-50
2023/02/12 09:52:37;;;;;;;20.47;7.60;;;10.00;99.90;;;;;;5051680;28;20413;-51
2023/02/12 09:55:04;;;;;;;21.97;7.17;;;10.10;99.90;;;;;;5051874;28;20502;-51
2023/02/12 09:57:35;;;;;;;17.17;7.13;;;9.70;99.90;;;;;;5033961;28;20811;-49
2023/02/12 10:00:05;;;;;;;14.73;6.63;;;10.10;99.90;;;;;;5033368;28;20500;-50
2023/02/12 10:02:34;;;;;;;16.60;7.53;;;9.90;99.90;;;;;;5052017;28;20735;-51
2023/02/12 10:05:01;;;;;;;17.07;7.40;;;9.90;99.90;;;;;;5051757;28;20526;-50
2023/02/12 10:07:43;;;;;;;21.87;6.93;;;9.70;99.90;;;;;;5051546;28;20410;-51
2023/02/12 10:10:22;;;;;;;19.60;7.80;;;9.80;99.90;;;;;;5051227;28;20410;-50
2023/02/12 10:12:55;;;;;;;17.57;7.00;;;9.80;99.90;;;;;;5051867;28;20447;-51
2023/02/12 10:15:32;;;;;;;19.03;7.07;;;9.90;99.90;;;;;;5051516;28;20876;-51
2023/02/12 10:18:11;;;;;;;21.53;8.30;;;10.20;99.90;;;;;;5033907;28;20486;-51
2023/02/12 10:21:06;;;;;;;23.20;6.90;;;9.50;99.90;;;;;;5051842;28;20417;-52
2023/02/12 10:24:00;;;;;;;18.73;7.73;;;10.00;99.90;;;;;;5048948;28;20513;-50
2023/02/12 10:26:31;;;;;;;18.57;6.93;;;10.30;99.90;;;;;;5051608;28;20515;-50
2023/02/12 10:29:09;;;;;;;13.27;6.30;;;10.10;99.90;;;;;;5051008;28;20451;-50
2023/02/12 10:31:40;;;;;;;17.73;6.53;;;10.20;99.90;;;;;;5051489;28;20435;-51
2023/02/12 10:34:15;;;;;;;17.30;7.37;;;10.30;99.90;;;;;;5051210;28;20994;-50
2023/02/12 10:36:44;;;;;;;15.27;6.63;;;10.20;99.90;;;;;;5051264;28;20422;-51
2023/02/12 10:39:15;;;;;;;14.97;6.77;;;10.20;99.90;;;;;;5050980;28;20524;-51
2023/02/12 10:41:47;;;;;;;21.43;8.03;;;10.40;99.90;;;;;;5051144;28;20471;-51
2023/02/12 10:44:15;;;;;;;18.50;8.10;;;10.10;99.90;;;;;;5052078;28;20950;-51
2023/02/12 10:46:42;;;;;;;17.43;7.10;;;10.20;99.90;;;;;;5054937;28;20427;-51
2023/02/12 10:49:12;;;;;;;26.50;11.07;;;9.90;99.90;;;;;;5054779;28;20418;-51
2023/02/12 10:51:58;;;;;;;16.97;8.30;;;10.10;99.90;;;;;;5055095;28;20430;-51
2023/02/12 10:54:36;;;;;;;13.73;7.60;;;10.30;99.90;;;;;;5054785;28;20470;-52
2023/02/12 10:57:14;;;;;;;18.10;9.20;;;10.30;99.90;;;;;;5055291;28;20442;-51
2023/02/12 10:59:43;;;;;;;21.93;8.80;;;10.20;99.90;;;;;;5054873;28;20434;-51
2023/02/12 11:02:22;;;;;;;16.97;11.03;;;9.70;99.90;;;;;;5054826;28;20438;-50
2023/02/12 11:04:49;;;;;;;18.27;9.43;;;10.20;99.90;;;;;;5054779;28;20450;-51
2023/02/12 11:07:16;;;;;;;18.67;10.50;;;10.30;99.90;;;;;;5054557;28;20440;-51
2023/02/12 11:09:45;;;;;;;19.60;10.50;;;10.50;99.90;;;;;;5054693;28;20496;-51
2023/02/12 11:12:20;;;;;;;20.63;10.97;;;10.40;99.90;;;;;;5054604;28;20452;-50
2023/02/12 11:14:53;;;;;;;18.80;9.47;;;10.50;99.90;;;;;;5054199;28;20495;-51
2023/02/12 11:17:25;;;;;;;16.80;10.37;;;10.40;99.90;;;;;;5054445;28;20402;-51
2023/02/12 11:20:09;;;;;;;20.90;10.90;;;10.40;99.90;;;;;;5054047;28;20446;-51
2023/02/12 11:22:36;;;;;;;18.67;10.77;;;10.40;99.90;;;;;;5054320;28;20478;-51
2023/02/12 11:25:15;;;;;;;24.50;10.57;;;10.50;99.90;;;;;;5054329;28;20452;-52
2023/02/12 11:27:42;;;;;;;31.50;16.53;;;9.80;99.90;;;;;;5054305;28;20493;-52
2023/02/12 11:30:16;;;;;;;16.30;9.60;;;10.70;99.90;;;;;;5053907;28;20410;-51
2023/02/12 11:32:43;;;;;;;16.77;9.57;;;10.30;99.90;;;;;;5053983;28;20439;-51
2023/02/12 11:35:14;;;;;;;16.90;9.43;;;10.10;99.90;;;;;;5054048;28;20856;-50
2023/02/12 11:37:43;;;;;;;16.40;8.53;;;10.40;99.90;;;;;;5036207;28;20429;-50
2023/02/12 11:40:18;;;;;;;16.37;10.27;;;10.20;99.90;;;;;;5053713;28;20434;-52
2023/02/12 11:42:49;;;;;;;25.23;11.53;;;10.00;99.90;;;;;;5035276;28;20919;-52
2023/02/12 11:45:21;;;;;;;18.10;8.70;;;10.00;99.90;;;;;;5053685;28;21044;-50
2023/02/12 11:47:48;;;;;;;15.87;8.80;;;10.30;99.90;;;;;;5053972;28;20903;-51
2023/02/12 11:50:23;;;;;;;18.47;11.07;;;10.30;99.90;;;;;;5053620;28;20927;-50
2023/02/12 11:52:52;;;;;;;11.97;8.60;;;10.40;99.90;;;;;;5053987;28;20831;-52
2023/02/12 11:55:23;;;;;;;29.53;13.77;;;10.40;99.90;;;;;;5053056;28;20462;-51
2023/02/12 11:57:51;;;;;;;14.80;9.93;;;10.70;99.90;;;;;;5052793;28;20435;-51
2023/02/12 12:00:24;;;;;;;22.53;10.30;;;10.00;99.90;;;;;;5053686;28;20592;-51
2023/02/12 12:02:57;;;;;;;11.90;8.33;;;10.60;99.90;;;;;;5053529;28;20866;-49
2023/02/12 12:05:30;;;;;;;14.47;6.97;;;10.30;99.90;;;;;;5053507;28;20451;-51
2023/02/12 12:07:59;;;;;;;10.13;7.13;;;10.10;99.90;;;;;;5053519;28;20949;-49
2023/02/12 12:10:34;;;;;;;16.73;12.50;;;10.00;99.90;;;;;;5053180;28;20409;-52
2023/02/12 12:13:06;;;;;;;12.70;7.30;;;10.20;99.90;;;;;;5035530;28;20456;-50
2023/02/12 12:21:15;;;;;;;15.60;8.03;;;10.40;99.90;;;;;;5053377;28;20943;-51
2023/02/12 12:23:46;;;;;;;17.57;8.87;;;10.30;99.90;;;;;;5053068;28;20492;-51
2023/02/12 12:26:20;;;;;;;13.47;7.47;;;10.40;99.90;;;;;;5053180;28;20432;-51
2023/02/12 12:28:52;;;;;;;10.20;7.10;;;10.60;99.90;;;;;;5053005;28;20759;-52
2023/02/12 12:31:25;;;;;;;11.97;8.00;;;10.70;99.90;;;;;;5053273;28;20407;-51
2023/02/12 12:33:54;;;;;;;12.83;7.77;;;10.80;99.90;;;;;;5052968;28;20522;-51
2023/02/12 12:36:53;;;;;;;12.17;7.83;;;10.70;99.90;;;;;;5052901;28;20474;-51
2023/02/12 12:39:28;;;;;;;12.33;7.50;;;10.70;99.90;;;;;;5052649;28;20452;-51
2023/02/12 12:42:33;;;;;;;11.73;7.23;;;10.10;99.90;;;;;;5052727;28;20470;-51
2023/02/12 12:45:16;;;;;;;15.17;7.60;;;10.30;99.90;;;;;;5052608;28;21010;-51
2023/02/12 12:47:57;;;;;;;11.77;7.10;;;11.00;99.90;;;;;;5053164;28;20400;-51
2023/02/12 12:50:42;;;;;;;11.90;7.23;;;10.90;99.90;;;;;;5052613;28;20513;-51
2023/02/12 12:53:20;;;;;;;12.03;7.03;;;11.00;99.90;;;;;;5052717;28;20492;-51
2023/02/12 12:56:18;;;;;;;12.20;6.70;;;10.80;99.90;;;;;;5052102;28;20448;-52
2023/02/12 12:59:03;;;;;;;10.07;7.53;;;10.60;99.90;;;;;;5051864;28;20443;-51
2023/02/12 13:01:49;;;;;;;11.53;6.70;;;10.80;99.90;;;;;;5052475;28;20797;-51
2023/02/12 13:04:49;;;;;;;10.93;8.10;;;11.20;99.90;;;;;;5051850;28;20437;-51
2023/02/12 13:07:31;;;;;;;12.30;7.83;;;10.80;99.90;;;;;;5052410;28;20410;-50